Time;durP1;ratioP1;P1;durP2;ratioP2;P2;SDS_P1;SDS_P2;PMS_P1;PMS_P2;Temp;Humidity;BMP_temperature;BMP_pressure;BME280_temperature;BME280_humidity;BME280_pressure;Samples;Min_cycle;Max_cycle;Signal;HPM_P1;HPM_P2
2022/11/08 00:01:30;;;;;;;46.92;25.65;;;;;;;10.19;74.23;100628.97;5071059;28;20058;-28
2022/11/08 00:03:07;;;;;;;218.15;89.43;;;;;;;10.22;74.43;100623.25;5070456;28;20500;-27
2022/11/08 00:14:01;;;;;;;153.82;60.30;;;;;;;9.42;77.46;100628.34;5070339;28;20043;-29
2022/11/08 00:16:28;;;;;;;80.43;33.75;;;;;;;9.66;75.89;100629.66;5070474;28;20506;-28
2022/11/08 00:18:53;;;;;;;74.75;34.13;;;;;;;9.43;76.26;100606.00;5070408;28;20024;-26
2022/11/08 00:21:19;;;;;;;83.45;36.05;;;;;;;9.22;76.47;100605.09;5070159;28;20032;-27
2022/11/08 00:23:44;;;;;;;49.33;24.38;;;;;;;9.42;76.46;100625.66;5069987;28;20028;-27
2022/11/08 00:26:10;;;;;;;52.40;25.50;;;;;;;9.46;76.26;100634.91;5070086;28;20036;-27
2022/11/08 00:28:35;;;;;;;87.20;38.28;;;;;;;9.74;75.49;100623.34;5070179;28;20028;-27
2022/11/08 00:31:05;;;;;;;83.07;37.00;;;;;;;9.83;73.66;100609.63;5070294;28;20038;-30
2022/11/08 00:33:30;;;;;;;82.60;35.88;;;;;;;9.81;73.87;100625.00;5069945;28;20035;-26
2022/11/08 00:35:59;;;;;;;77.95;34.28;;;;;;;9.77;74.17;100613.09;5070159;28;20036;-28
2022/11/08 00:38:25;;;;;;;73.80;33.90;;;;;;;9.77;73.75;100604.31;5069958;28;20036;-27
2022/11/08 00:40:51;;;;;;;66.13;28.90;;;;;;;9.86;73.64;100619.06;5068201;28;20028;-27
2022/11/08 00:43:16;;;;;;;79.40;36.97;;;;;;;9.77;73.12;100610.44;5069905;28;20497;-28
2022/11/08 00:45:41;;;;;;;72.55;35.03;;;;;;;9.50;74.73;100617.53;5070048;28;20028;-28
2022/11/08 00:48:07;;;;;;;80.07;35.78;;;;;;;9.08;76.11;100611.34;5068557;28;20032;-28
2022/11/08 00:50:32;;;;;;;81.50;35.72;;;;;;;9.27;75.89;100616.97;5068240;28;20693;-27
2022/11/08 00:52:58;;;;;;;85.40;36.60;;;;;;;9.23;75.94;100614.72;5069784;28;20492;-26
2022/11/08 00:55:23;;;;;;;70.72;33.83;;;;;;;9.09;76.46;100606.84;5069039;28;20029;-26
2022/11/08 00:57:48;;;;;;;78.53;37.20;;;;;;;9.07;76.84;100624.84;5068566;28;20048;-26
2022/11/08 01:00:14;;;;;;;74.25;35.65;;;;;;;8.79;76.80;100607.88;5068595;28;20060;-26
2022/11/08 01:02:40;;;;;;;68.78;30.88;;;;;;;8.62;77.63;100606.50;5067077;28;20139;-26
2022/11/08 01:05:05;;;;;;;78.90;33.63;;;;;;;8.52;77.93;100600.72;5069633;28;20037;-26
2022/11/08 01:07:31;;;;;;;76.97;34.42;;;;;;;8.94;75.98;100620.25;5069089;28;20098;-26
2022/11/08 01:09:56;;;;;;;60.05;27.50;;;;;;;8.91;74.32;100602.84;5067526;28;20028;-27
2022/11/08 01:12:21;;;;;;;54.90;25.17;;;;;;;8.57;75.46;100603.63;5069434;28;20603;-27
2022/11/08 01:14:47;;;;;;;66.70;28.95;;;;;;;8.96;74.68;100597.75;5069210;28;20020;-30
2022/11/08 01:17:12;;;;;;;59.38;30.02;;;;;;;9.25;73.80;100609.19;5069371;28;20036;-29
2022/11/08 01:19:38;;;;;;;66.68;31.30;;;;;;;9.15;75.00;100620.19;5069246;28;20447;-29
2022/11/08 01:22:03;;;;;;;104.93;42.60;;;;;;;9.20;75.86;100598.31;5069192;28;20036;-27
2022/11/08 01:24:28;;;;;;;106.95;47.53;;;;;;;9.15;75.94;100600.72;5067459;28;20373;-26
2022/11/08 01:26:54;;;;;;;160.68;63.03;;;;;;;8.99;76.09;100585.91;5069442;28;20031;-26
2022/11/08 01:29:19;;;;;;;101.10;43.65;;;;;;;9.18;75.25;100609.16;5067486;28;20028;-27
2022/11/08 01:31:45;;;;;;;158.88;61.05;;;;;;;9.23;74.76;100582.78;5069160;28;20459;-27
2022/11/08 01:34:10;;;;;;;168.77;65.22;;;;;;;9.18;75.82;100593.19;5067513;28;20068;-30
2022/11/08 01:36:36;;;;;;;160.30;62.47;;;;;;;9.29;76.04;100585.66;5069103;28;20035;-25
2022/11/08 01:39:01;;;;;;;109.80;44.80;;;;;;;8.98;75.10;100590.41;5067388;28;20107;-28
2022/11/08 01:41:27;;;;;;;130.73;53.75;;;;;;;8.53;77.92;100599.72;5068728;28;20444;-25
2022/11/08 01:43:56;;;;;;;77.40;34.55;;;;;;;8.39;77.54;100607.53;5068957;28;20029;-27
2022/11/08 01:46:31;;;;;;;87.00;36.13;;;;;;;8.58;76.68;100597.28;5068770;28;20141;-27
2022/11/08 01:49:09;;;;;;;83.10;34.95;;;;;;;8.76;76.03;100602.94;5068711;28;20500;-26
2022/11/08 01:51:40;;;;;;;72.70;35.13;;;;;;;9.02;75.34;100596.16;5068379;28;20036;-26
2022/11/08 01:54:10;;;;;;;109.20;43.13;;;;;;;8.64;76.13;100577.91;5068798;28;20024;-27
2022/11/08 01:56:37;;;;;;;79.85;36.67;;;;;;;8.40;77.11;100590.59;5068594;28;20060;-26
2022/11/08 01:59:06;;;;;;;67.70;32.58;;;;;;;8.28;77.56;100575.34;5068637;28;20404;-28
2022/11/08 02:01:32;;;;;;;55.05;25.85;;;;;;;8.28;77.72;100570.84;5068291;28;20412;-29
2022/11/08 02:03:59;;;;;;;54.03;26.05;;;;;;;8.56;77.18;100586.88;5068300;28;20040;-26
2022/11/08 02:06:25;;;;;;;52.22;24.85;;;;;;;8.69;76.34;100583.47;5068229;28;20056;-26
2022/11/08 02:08:50;;;;;;;60.65;30.38;;;;;;;8.60;77.17;100576.66;5068607;28;20029;-26
2022/11/08 02:11:17;;;;;;;71.18;31.73;;;;;;;8.64;78.13;100591.19;5067997;28;20565;-25
2022/11/08 02:13:42;;;;;;;52.72;26.95;;;;;;;8.76;78.49;100586.16;5068309;28;20028;-26
2022/11/08 02:16:14;;;;;;;50.83;24.73;;;;;;;8.60;78.88;100576.66;5068202;28;20021;-28
2022/11/08 02:18:42;;;;;;;37.25;19.48;;;;;;;8.77;78.67;100572.69;5068092;28;20561;-26
2022/11/08 02:21:26;;;;;;;36.40;18.13;;;;;;;8.74;77.95;100566.94;5068063;28;20039;-26
2022/11/08 02:24:12;;;;;;;34.90;17.58;;;;;;;8.78;78.96;100584.13;5068136;28;20025;-26
2022/11/08 02:26:39;;;;;;;35.20;17.50;;;;;;;8.58;79.47;100565.38;5067743;28;20032;-27
2022/11/08 02:29:26;;;;;;;26.67;15.00;;;;;;;9.01;77.89;100583.88;5067507;28;20028;-26
2022/11/08 02:31:52;;;;;;;24.77;14.33;;;;;;;8.55;79.50;100569.25;5066477;28;20028;-26
2022/11/08 02:34:22;;;;;;;25.67;14.27;;;;;;;8.61;79.98;100588.94;5067790;28;20093;-28
2022/11/08 02:36:48;;;;;;;26.00;14.98;;;;;;;8.77;78.99;100578.00;5067485;28;20098;-27
2022/11/08 02:39:14;;;;;;;24.80;14.57;;;;;;;8.62;78.90;100563.97;5067522;28;20028;-26
2022/11/08 02:41:39;;;;;;;25.40;13.90;;;;;;;8.74;78.90;100582.88;5067341;28;20027;-26
2022/11/08 02:44:05;;;;;;;23.75;13.70;;;;;;;8.64;79.44;100572.59;5067808;28;20027;-28
2022/11/08 02:46:30;;;;;;;23.40;13.57;;;;;;;8.63;79.33;100577.09;5067660;28;20020;-26
2022/11/08 02:48:56;;;;;;;24.80;13.82;;;;;;;8.60;79.34;100584.63;5067572;28;20191;-29
2022/11/08 02:51:21;;;;;;;23.70;13.27;;;;;;;8.58;78.89;100568.03;5067463;28;20021;-28
2022/11/08 02:53:46;;;;;;;24.80;14.68;;;;;;;8.82;78.37;100583.56;5067345;28;20511;-27
2022/11/08 02:56:12;;;;;;;23.83;15.63;;;;;;;8.99;77.33;100581.44;5067454;28;20070;-26
2022/11/08 02:58:37;;;;;;;27.30;13.75;;;;;;;8.81;78.09;100589.91;5067393;28;20432;-26
2022/11/08 03:01:03;;;;;;;25.38;13.75;;;;;;;8.80;77.97;100579.44;5067266;28;20105;-29
2022/11/08 03:03:28;;;;;;;24.08;14.15;;;;;;;8.90;77.33;100571.13;5067767;28;20033;-26
2022/11/08 03:05:55;;;;;;;26.73;15.57;;;;;;;8.99;77.15;100577.91;5067353;28;20048;-26
2022/11/08 03:08:21;;;;;;;26.65;14.32;;;;;;;8.99;77.23;100588.56;5065801;28;20029;-26
2022/11/08 03:10:46;;;;;;;26.63;15.27;;;;;;;9.22;76.51;100581.13;5067087;28;20043;-27
2022/11/08 03:13:12;;;;;;;26.27;14.48;;;;;;;9.37;75.97;100588.97;5067251;28;20040;-25
2022/11/08 03:15:38;;;;;;;24.38;14.25;;;;;;;9.34;75.50;100567.28;5065837;28;20028;-26
2022/11/08 03:18:03;;;;;;;24.48;13.75;;;;;;;9.32;76.02;100572.78;5067298;28;20574;-26
2022/11/08 03:20:28;;;;;;;21.83;13.10;;;;;;;9.23;76.73;100592.59;5067322;28;20060;-25
2022/11/08 03:22:58;;;;;;;26.08;14.23;;;;;;;9.38;76.19;100585.31;5067232;28;20024;-29
2022/11/08 03:25:25;;;;;;;26.20;15.48;;;;;;;9.59;75.50;100592.34;5069034;28;20107;-29
2022/11/08 03:27:50;;;;;;;24.75;14.73;;;;;;;9.65;75.72;100593.41;5074096;28;20032;-28
2022/11/08 03:30:16;;;;;;;27.08;16.67;;;;;;;9.79;74.56;100596.94;5072370;28;20032;-27
2022/11/08 03:32:43;;;;;;;26.42;14.75;;;;;;;9.61;75.42;100589.50;5073845;28;20510;-27
2022/11/08 03:35:08;;;;;;;26.92;14.70;;;;;;;9.59;75.65;100596.84;5073607;28;20035;-28
2022/11/08 03:37:34;;;;;;;25.63;15.48;;;;;;;9.26;77.30;100581.56;5073530;28;20032;-29
2022/11/08 03:39:59;;;;;;;28.98;14.75;;;;;;;9.15;77.65;100579.44;5073249;28;20552;-26
2022/11/08 03:42:25;;;;;;;22.50;14.50;;;;;;;9.18;78.26;100590.53;5073549;28;20091;-25
2022/11/08 03:44:50;;;;;;;27.05;15.18;;;;;;;9.53;76.32;100595.81;5072099;28;20571;-28
2022/11/08 03:47:16;;;;;;;23.38;14.80;;;;;;;9.40;76.18;100577.13;5073225;28;20089;-29
2022/11/08 03:49:41;;;;;;;25.55;14.65;;;;;;;9.64;75.19;100595.25;5073701;28;20059;-26
2022/11/08 03:52:06;;;;;;;27.83;16.38;;;;;;;9.59;75.80;100597.66;5071955;28;20044;-26
2022/11/08 03:54:32;;;;;;;78.80;37.08;;;;;;;9.58;75.53;100595.19;5073312;28;20023;-28
2022/11/08 03:56:57;;;;;;;107.32;42.65;;;;;;;9.64;75.09;100584.59;5073468;28;20488;-27
2022/11/08 03:59:22;;;;;;;149.93;54.15;;;;;;;9.62;75.17;100591.97;5071899;28;20024;-29
2022/11/08 04:01:48;;;;;;;264.25;93.13;;;;;;;9.70;75.48;100592.78;5071908;28;20412;-27
2022/11/08 04:04:13;;;;;;;231.00;83.22;;;;;;;9.24;77.24;100594.25;5073601;28;20029;-25
2022/11/08 04:06:39;;;;;;;226.95;81.35;;;;;;;8.88;78.87;100573.16;5073298;28;20048;-26
2022/11/08 04:09:04;;;;;;;203.30;73.95;;;;;;;8.91;79.05;100578.06;5072683;28;20056;-27
2022/11/08 04:16:59;;;;;;;92.82;41.53;;;;;;;8.59;80.88;100590.97;5089114;28;20044;-27
2022/11/08 04:22:10;;;;;;;68.18;32.25;;;;;;;8.77;79.44;100583.31;5092922;28;20507;-27
2022/11/08 04:24:35;;;;;;;64.70;32.78;;;;;;;8.73;79.61;100565.31;5093248;28;20077;-27
2022/11/08 04:27:01;;;;;;;62.95;30.45;;;;;;;8.80;79.32;100566.16;5093526;28;20139;-26
2022/11/08 04:29:27;;;;;;;55.40;29.17;;;;;;;8.61;79.69;100560.50;5093208;28;20057;-28
2022/11/08 04:31:52;;;;;;;49.08;26.38;;;;;;;8.94;79.16;100567.06;5093312;28;20067;-26
2022/11/08 04:34:18;;;;;;;46.63;24.85;;;;;;;8.99;78.38;100560.16;5075163;28;20055;-28
2022/11/08 04:36:44;;;;;;;43.72;25.02;;;;;;;9.15;77.98;100553.66;5091547;28;20112;-28
2022/11/08 04:39:09;;;;;;;45.30;24.45;;;;;;;9.10;78.36;100561.41;5089789;28;20115;-26
2022/11/08 04:41:35;;;;;;;46.40;24.58;;;;;;;9.29;77.42;100559.06;5088717;28;20024;-26
2022/11/08 04:44:01;;;;;;;48.40;25.73;;;;;;;8.76;79.08;100560.38;5090053;28;20078;-27
2022/11/08 04:46:28;;;;;;;45.60;24.50;;;;;;;8.90;79.42;100579.09;5089424;28;20668;-26
2022/11/08 04:48:56;;;;;;;43.22;22.60;;;;;;;8.93;79.03;100570.72;5089572;28;20396;-26
2022/11/08 04:51:27;;;;;;;44.58;22.88;;;;;;;8.71;78.76;100562.00;5071616;28;20497;-25
2022/11/08 04:53:55;;;;;;;39.05;20.08;;;;;;;8.89;77.47;100580.09;5089777;28;20030;-28
2022/11/08 04:56:20;;;;;;;35.90;18.37;;;;;;;8.75;77.52;100574.72;5071510;28;20080;-27
2022/11/08 04:58:49;;;;;;;40.53;21.27;;;;;;;8.82;77.13;100602.16;5071450;28;20456;-27
2022/11/08 05:01:17;;;;;;;35.90;18.55;;;;;;;8.97;76.27;100601.22;5089328;28;20024;-26
2022/11/08 05:03:44;;;;;;;40.90;19.33;;;;;;;9.00;76.56;100607.00;5071554;28;20697;-30
2022/11/08 05:06:13;;;;;;;40.88;18.50;;;;;;;8.88;77.08;100615.72;5089718;28;20101;-26
2022/11/08 05:08:39;;;;;;;34.25;18.98;;;;;;;9.02;77.32;100618.25;5089399;28;20032;-28
2022/11/08 05:11:07;;;;;;;33.50;18.48;;;;;;;8.93;76.67;100597.31;5089322;28;20036;-26
2022/11/08 05:13:33;;;;;;;38.58;19.38;;;;;;;9.00;77.38;100622.16;5070940;28;20550;-27
2022/11/08 05:16:01;;;;;;;32.00;18.02;;;;;;;8.76;78.34;100620.75;5089707;28;20531;-30
2022/11/08 05:18:27;;;;;;;31.73;18.20;;;;;;;8.75;78.78;100613.78;5071414;28;20077;-27
2022/11/08 05:23:38;;;;;;;34.75;18.13;;;;;;;8.66;79.66;100618.41;5089550;28;20084;-27
2022/11/08 05:26:04;;;;;;;35.63;17.65;;;;;;;8.69;79.46;100618.03;5089163;28;20446;-27
2022/11/08 05:28:29;;;;;;;35.22;16.88;;;;;;;8.80;79.36;100638.78;5089042;28;20105;-26
2022/11/08 05:30:55;;;;;;;31.48;17.88;;;;;;;8.64;80.02;100636.38;5089154;28;20118;-26
2022/11/08 05:33:22;;;;;;;33.78;16.95;;;;;;;8.67;79.54;100628.03;5088675;28;20504;-26
2022/11/08 05:35:48;;;;;;;36.13;17.27;;;;;;;8.88;78.91;100637.81;5089239;28;20583;-27
2022/11/08 05:38:13;;;;;;;34.45;17.85;;;;;;;8.87;78.86;100630.03;5088914;28;20035;-27
2022/11/08 05:40:39;;;;;;;36.42;17.85;;;;;;;9.03;78.04;100632.38;5070443;28;20032;-25
2022/11/08 05:43:05;;;;;;;31.58;18.35;;;;;;;9.38;77.62;100648.38;5088574;28;20189;-26
2022/11/08 05:45:30;;;;;;;36.03;16.80;;;;;;;9.45;76.64;100634.06;5087399;28;20031;-26
2022/11/08 05:47:56;;;;;;;29.75;17.88;;;;;;;9.48;77.22;100643.53;5070158;28;20541;-28
2022/11/08 05:50:23;;;;;;;32.78;17.92;;;;;;;9.57;76.93;100663.63;5088601;28;20550;-26
2022/11/08 05:52:52;;;;;;;33.25;19.48;;;;;;;9.41;77.93;100642.66;5088640;28;20403;-27
2022/11/08 05:55:18;;;;;;;30.17;18.52;;;;;;;9.84;76.44;100674.38;5087845;28;20089;-29
2022/11/08 05:57:43;;;;;;;36.80;22.00;;;;;;;9.58;77.29;100659.94;5088708;28;20036;-25
2022/11/08 06:00:10;;;;;;;40.83;24.92;;;;;;;9.61;76.94;100662.19;5088507;28;20036;-28
2022/11/08 06:02:36;;;;;;;35.13;20.42;;;;;;;9.76;76.37;100686.03;5088429;28;20035;-27
2022/11/08 06:05:01;;;;;;;34.17;19.10;;;;;;;9.67;76.92;100678.44;5088499;28;20032;-27
2022/11/08 06:07:27;;;;;;;27.52;16.33;;;;;;;9.77;77.16;100684.22;5087976;28;20130;-26
2022/11/08 06:09:52;;;;;;;30.10;16.67;;;;;;;9.87;76.67;100692.66;5088075;28;20487;-26
2022/11/08 06:12:19;;;;;;;29.08;16.38;;;;;;;9.88;76.80;100693.47;5086945;28;20032;-28
2022/11/08 06:14:44;;;;;;;30.58;17.83;;;;;;;9.74;77.71;100681.94;5069972;28;20024;-27
2022/11/08 06:17:10;;;;;;;36.70;18.25;;;;;;;9.80;77.73;100663.31;5088235;28;20035;-27
2022/11/08 06:19:35;;;;;;;48.38;21.98;;;;;;;9.75;78.13;100678.25;5088037;28;20023;-27
2022/11/08 06:22:01;;;;;;;74.43;33.78;;;;;;;9.71;79.06;100674.34;5069431;28;20028;-30
2022/11/08 06:24:26;;;;;;;67.97;30.02;;;;;;;9.77;78.37;100658.38;5087784;28;20105;-27
2022/11/08 06:26:52;;;;;;;50.83;23.95;;;;;;;9.47;79.70;100668.47;5069820;28;20024;-26
2022/11/08 06:29:17;;;;;;;34.55;20.58;;;;;;;9.63;79.95;100652.19;5087587;28;20122;-31
2022/11/08 06:31:42;;;;;;;35.92;19.80;;;;;;;9.99;79.01;100675.06;5088295;28;20047;-27
2022/11/08 06:34:08;;;;;;;34.08;19.45;;;;;;;9.82;79.97;100687.09;5086214;28;20023;-29
2022/11/08 06:36:33;;;;;;;39.42;21.83;;;;;;;9.94;79.82;100684.69;5087756;28;20027;-26
2022/11/08 06:38:59;;;;;;;35.22;20.35;;;;;;;9.82;80.12;100682.56;5087312;28;20020;-28
2022/11/08 06:41:26;;;;;;;44.75;24.23;;;;;;;9.95;80.48;100679.16;5069242;28;20032;-26
2022/11/08 06:43:52;;;;;;;76.70;40.10;;;;;;;9.94;79.58;100690.00;5087559;28;20032;-28
2022/11/08 06:46:17;;;;;;;87.40;40.95;;;;;;;9.95;79.52;100692.47;5087486;28;20035;-27
2022/11/08 06:48:43;;;;;;;59.45;26.48;;;;;;;9.73;79.62;100675.78;5069314;28;20040;-28
2022/11/08 06:51:08;;;;;;;45.58;24.80;;;;;;;10.08;79.51;100688.22;5087287;28;20039;-28
2022/11/08 06:53:34;;;;;;;38.83;20.63;;;;;;;10.29;78.01;100680.06;5068883;28;20034;-25
2022/11/08 06:56:01;;;;;;;37.33;21.75;;;;;;;10.46;78.35;100693.84;5069119;28;20031;-27
2022/11/08 06:58:26;;;;;;;31.23;19.40;;;;;;;10.50;77.77;100679.13;5087415;28;20476;-26
2022/11/08 07:00:52;;;;;;;37.83;20.58;;;;;;;10.55;77.79;100694.50;5086431;28;20024;-28
2022/11/08 07:03:17;;;;;;;46.35;24.88;;;;;;;10.65;77.91;100697.59;5086991;28;20081;-27
2022/11/08 07:05:43;;;;;;;55.92;27.65;;;;;;;10.71;77.49;100691.44;5086671;28;20071;-30
2022/11/08 07:08:08;;;;;;;65.47;30.85;;;;;;;10.90;78.00;100694.31;5086847;28;20028;-28
2022/11/08 07:10:35;;;;;;;43.30;23.40;;;;;;;10.60;78.79;100666.22;5087475;28;20399;-28
2022/11/08 07:13:01;;;;;;;37.50;21.63;;;;;;;10.65;79.12;100662.91;5068954;28;20035;-26
2022/11/08 07:15:28;;;;;;;38.75;22.95;;;;;;;10.83;78.68;100683.66;5087269;28;20043;-26
2022/11/08 07:17:53;;;;;;;33.88;20.55;;;;;;;11.04;78.25;100686.09;5087456;28;20059;-26
2022/11/08 07:20:21;;;;;;;39.92;23.08;;;;;;;11.15;78.67;100673.97;5086953;28;20063;-28
2022/11/08 07:22:46;;;;;;;43.10;25.35;;;;;;;11.30;77.22;100667.56;5086861;28;20115;-27
2022/11/08 07:25:12;;;;;;;38.38;22.63;;;;;;;11.72;76.15;100666.22;5086945;28;20107;-28
2022/11/08 07:27:37;;;;;;;43.85;23.75;;;;;;;11.91;76.46;100675.22;5087213;28;20031;-29
2022/11/08 07:30:03;;;;;;;46.78;26.23;;;;;;;12.06;75.42;100682.97;5087082;28;20032;-27
2022/11/08 07:32:28;;;;;;;40.58;23.80;;;;;;;12.16;75.18;100682.50;5087157;28;20048;-27
2022/11/08 07:34:54;;;;;;;42.40;24.35;;;;;;;12.18;75.14;100675.91;5086816;28;20028;-28
2022/11/08 07:37:19;;;;;;;41.42;24.08;;;;;;;12.19;75.57;100682.06;5068264;28;20111;-27
2022/11/08 07:39:44;;;;;;;39.08;24.90;;;;;;;12.32;74.24;100652.59;5068787;28;20038;-30
2022/11/08 07:42:10;;;;;;;43.35;25.27;;;;;;;12.46;73.79;100683.56;5086659;28;20583;-29
2022/11/08 07:44:35;;;;;;;40.55;25.27;;;;;;;12.60;72.92;100673.56;5086744;28;20020;-26
2022/11/08 07:47:01;;;;;;;45.08;24.88;;;;;;;12.59;73.47;100676.47;5068797;28;20028;-27
2022/11/08 07:49:26;;;;;;;43.30;26.83;;;;;;;12.30;73.58;100660.00;5086453;28;20032;-26
2022/11/08 07:51:51;;;;;;;76.70;41.78;;;;;;;12.80;73.56;100672.59;5085499;28;20036;-28
2022/11/08 07:54:17;;;;;;;55.22;31.55;;;;;;;12.89;72.88;100665.09;5068418;28;20446;-30
2022/11/08 07:56:42;;;;;;;52.70;35.70;;;;;;;13.15;72.29;100680.94;5086788;28;20157;-27
2022/11/08 07:59:08;;;;;;;51.83;34.70;;;;;;;13.15;71.23;100680.94;5086486;28;20110;-30
2022/11/08 08:01:33;;;;;;;58.30;40.97;;;;;;;12.98;71.86;100680.69;5086540;28;20032;-27
2022/11/08 08:03:58;;;;;;;60.33;40.13;;;;;;;13.12;71.67;100685.91;5086686;28;20499;-30
2022/11/08 08:06:25;;;;;;;55.53;35.67;;;;;;;13.24;71.05;100686.84;5086286;28;20492;-28
2022/11/08 08:08:50;;;;;;;50.35;32.65;;;;;;;13.01;71.34;100668.72;5086720;28;20024;-29
2022/11/08 08:11:16;;;;;;;110.00;48.55;;;;;;;13.32;70.80;100683.06;5087167;28;20039;-26
2022/11/08 08:13:41;;;;;;;73.32;42.05;;;;;;;13.34;70.88;100689.03;5090609;28;20043;-26
2022/11/08 08:16:07;;;;;;;50.38;30.33;;;;;;;13.49;69.82;100653.84;5090473;28;20032;-30
2022/11/08 08:18:33;;;;;;;38.55;23.40;;;;;;;13.63;69.71;100682.13;5072016;28;20388;-30
2022/11/08 08:20:58;;;;;;;37.78;21.60;;;;;;;14.09;67.71;100687.94;5090146;28;20081;-27
2022/11/08 08:23:24;;;;;;;38.03;22.33;;;;;;;14.60;66.73;100694.69;5071687;28;20072;-27
2022/11/08 08:25:49;;;;;;;37.03;19.05;;;;;;;14.73;65.42;100689.13;5090757;28;20036;-27
2022/11/08 08:28:15;;;;;;;31.98;21.70;;;;;;;14.83;64.49;100686.69;5090245;28;20024;-29
2022/11/08 08:30:40;;;;;;;36.00;21.35;;;;;;;14.88;64.13;100669.06;5090219;28;20063;-26
2022/11/08 08:33:12;;;;;;;34.40;21.25;;;;;;;15.14;63.21;100665.91;5089743;28;20028;-27
2022/11/08 08:35:38;;;;;;;36.70;21.13;;;;;;;15.30;63.00;100685.03;5090091;28;20028;-28
2022/11/08 08:38:04;;;;;;;39.50;21.65;;;;;;;15.10;63.84;100669.28;5090367;28;20472;-26
2022/11/08 08:40:31;;;;;;;43.70;20.80;;;;;;;15.00;63.11;100680.63;5090010;28;20476;-27
2022/11/08 08:42:58;;;;;;;35.15;21.05;;;;;;;15.26;62.56;100674.78;5071678;28;20028;-26
2022/11/08 08:45:23;;;;;;;34.22;21.15;;;;;;;15.20;62.92;100670.34;5089659;28;20032;-27
2022/11/08 08:47:53;;;;;;;32.53;19.77;;;;;;;15.27;62.76;100671.03;5090115;28;20047;-26
2022/11/08 08:50:19;;;;;;;37.63;21.17;;;;;;;15.72;62.19;100682.19;5089441;28;20063;-26
2022/11/08 08:52:45;;;;;;;32.80;19.73;;;;;;;15.86;60.83;100687.06;5089927;28;20103;-27
2022/11/08 08:55:10;;;;;;;34.38;20.67;;;;;;;16.15;60.12;100686.28;5089430;28;20452;-25
2022/11/08 08:57:36;;;;;;;32.03;19.63;;;;;;;16.26;59.07;100674.63;5089700;28;20035;-27
2022/11/08 09:00:03;;;;;;;33.28;19.92;;;;;;;16.24;59.89;100695.59;5089557;28;20058;-28
2022/11/08 09:02:28;;;;;;;35.90;20.42;;;;;;;16.02;61.10;100682.81;5071094;28;20515;-26
2022/11/08 09:04:54;;;;;;;34.70;20.50;;;;;;;15.82;61.03;100668.97;5071100;28;20036;-34
2022/11/08 09:07:19;;;;;;;33.90;21.17;;;;;;;16.00;61.45;100690.31;5089264;28;20140;-27
2022/11/08 09:09:44;;;;;;;46.28;21.17;;;;;;;15.95;60.06;100671.38;5090046;28;20384;-26
2022/11/08 09:12:10;;;;;;;36.70;19.40;;;;;;;15.98;61.08;100665.53;5089267;28;20028;-26
2022/11/08 09:14:35;;;;;;;35.95;19.20;;;;;;;16.18;60.75;100683.09;5071254;28;20024;-27
2022/11/08 09:17:01;;;;;;;34.28;19.08;;;;;;;16.11;60.71;100663.59;5089254;28;20027;-27
2022/11/08 09:19:26;;;;;;;34.25;18.67;;;;;;;16.09;60.02;100671.91;5089013;28;20088;-25
2022/11/08 09:21:51;;;;;;;34.25;19.45;;;;;;;15.62;61.57;100662.09;5089250;28;20032;-27
2022/11/08 09:24:17;;;;;;;34.65;20.27;;;;;;;15.74;61.38;100664.78;5088645;28;20473;-29
2022/11/08 09:26:43;;;;;;;29.92;19.48;;;;;;;15.89;61.02;100671.50;5089275;28;20404;-28
2022/11/08 09:29:08;;;;;;;29.15;18.75;;;;;;;16.31;59.86;100680.13;5088887;28;20550;-27
2022/11/08 09:31:33;;;;;;;33.72;19.95;;;;;;;15.96;61.70;100666.81;5089308;28;20042;-29
2022/11/08 09:33:59;;;;;;;32.30;20.63;;;;;;;15.78;61.54;100665.94;5088511;28;20028;-31
2022/11/08 09:36:24;;;;;;;30.20;18.15;;;;;;;15.87;60.73;100655.59;5089069;28;20112;-27
2022/11/08 09:38:50;;;;;;;29.98;18.92;;;;;;;16.10;61.06;100662.78;5088664;28;20407;-27
2022/11/08 09:41:43;;;;;;;31.02;19.02;;;;;;;16.44;59.88;100668.22;5088664;28;20024;-26
2022/11/08 09:44:30;;;;;;;31.50;19.52;;;;;;;16.24;59.99;100649.84;5088816;28;20039;-31
2022/11/08 09:47:01;;;;;;;31.30;18.50;;;;;;;15.82;60.98;100661.72;5088971;28;20024;-27
2022/11/08 09:49:32;;;;;;;27.77;17.48;;;;;;;16.01;61.22;100659.66;5088615;28;20293;-28
2022/11/08 09:51:59;;;;;;;25.30;16.63;;;;;;;16.14;60.30;100668.47;5088700;28;20564;-28
2022/11/08 09:54:34;;;;;;;30.25;17.38;;;;;;;16.56;59.32;100668.16;5088471;28;20032;-26
2022/11/08 09:57:04;;;;;;;29.10;17.98;;;;;;;16.42;59.72;100652.31;5070065;28;20571;-28
2022/11/08 09:59:38;;;;;;;24.08;15.98;;;;;;;16.58;59.37;100669.53;5088769;28;20038;-27
2022/11/08 10:02:24;;;;;;;25.80;15.98;;;;;;;16.16;59.48;100666.38;5088781;28;20024;-27
2022/11/08 10:04:58;;;;;;;23.95;15.65;;;;;;;16.39;59.74;100660.88;5088597;28;20097;-30
2022/11/08 10:07:33;;;;;;;26.05;16.33;;;;;;;16.16;59.96;100656.44;5087672;28;20133;-28
2022/11/08 10:10:06;;;;;;;23.60;15.18;;;;;;;16.38;59.70;100658.44;5088690;28;20032;-28
2022/11/08 10:13:03;;;;;;;27.10;16.88;;;;;;;16.76;58.85;100665.78;5088418;28;20043;-28
2022/11/08 10:15:56;;;;;;;29.40;15.80;;;;;;;16.83;58.84;100644.09;5070009;28;20469;-28
2022/11/08 10:19:01;;;;;;;22.40;14.57;;;;;;;16.78;57.90;100642.13;5088136;28;20040;-28
2022/11/08 10:21:45;;;;;;;27.38;15.77;;;;;;;17.00;58.21;100654.84;5087641;28;20119;-29
2022/11/08 10:24:36;;;;;;;25.00;15.23;;;;;;;17.00;58.06;100642.22;5087826;28;20399;-27
2022/11/08 10:27:10;;;;;;;23.70;14.15;;;;;;;17.26;56.52;100645.25;5088428;28;20028;-33
2022/11/08 10:29:40;;;;;;;20.10;14.45;;;;;;;17.28;57.49;100645.81;5087984;28;20032;-29
2022/11/08 10:32:23;;;;;;;24.73;13.57;;;;;;;17.57;55.94;100630.31;5087978;28;20100;-28
2022/11/08 10:35:10;;;;;;;30.65;14.48;;;;;;;17.77;55.44;100637.00;5086892;28;20042;-30
2022/11/08 10:37:37;;;;;;;21.70;14.60;;;;;;;17.61;55.68;100626.03;5087730;28;20640;-28
2022/11/08 10:40:11;;;;;;;26.58;15.20;;;;;;;18.12;54.40;100633.06;5087546;28;20254;-30
2022/11/08 10:42:44;;;;;;;22.40;13.82;;;;;;;18.69;53.28;100635.16;5069188;28;20062;-26
2022/11/08 10:45:10;;;;;;;23.98;13.98;;;;;;;18.53;53.42;100631.56;5087440;28;20031;-26
2022/11/08 10:47:36;;;;;;;26.98;16.42;;;;;;;18.39;53.18;100623.06;5087752;28;20031;-27
2022/11/08 10:50:12;;;;;;;23.83;14.02;;;;;;;18.26;53.85;100618.06;5087439;28;20020;-26
2022/11/08 10:52:43;;;;;;;24.15;14.25;;;;;;;18.22;54.00;100604.28;5087852;28;20120;-26
2022/11/08 10:55:24;;;;;;;26.20;14.75;;;;;;;18.37;53.54;100610.88;5087024;28;20157;-30
2022/11/08 10:57:49;;;;;;;24.45;14.73;;;;;;;18.57;52.96;100611.06;5087384;28;20556;-28
2022/11/08 11:00:15;;;;;;;21.80;14.13;;;;;;;18.31;53.80;100601.09;5087381;28;20024;-27
2022/11/08 11:02:42;;;;;;;27.75;13.80;;;;;;;18.41;53.38;100604.72;5087126;28;20040;-28
2022/11/08 11:05:17;;;;;;;25.13;14.23;;;;;;;18.73;52.68;100611.97;5087271;28;20039;-28
2022/11/08 11:07:56;;;;;;;27.52;14.93;;;;;;;18.94;52.18;100604.84;5087602;28;20373;-27
2022/11/08 11:10:22;;;;;;;22.67;13.77;;;;;;;19.18;52.30;100607.94;5068840;28;20035;-28
2022/11/08 11:12:50;;;;;;;22.13;14.02;;;;;;;19.79;50.20;100606.59;5087312;28;20032;-26
2022/11/08 11:15:16;;;;;;;20.33;14.02;;;;;;;19.41;50.29;100585.06;5087079;28;20027;-26
2022/11/08 11:17:45;;;;;;;21.02;13.52;;;;;;;19.51;51.00;100592.38;5087174;28;20036;-27
2022/11/08 11:20:22;;;;;;;24.15;14.60;;;;;;;19.55;50.38;100581.84;5086929;28;20020;-28
2022/11/08 11:22:50;;;;;;;21.20;15.02;;;;;;;19.59;50.87;100572.94;5087247;28;20103;-27
2022/11/08 11:25:19;;;;;;;23.23;15.27;;;;;;;19.91;49.90;100582.78;5086815;28;20453;-27
2022/11/08 11:27:56;;;;;;;21.33;14.30;;;;;;;19.54;49.53;100559.41;5068854;28;20027;-26
2022/11/08 11:30:34;;;;;;;21.48;13.82;;;;;;;19.47;49.63;100588.59;5068842;28;20038;-27
2022/11/08 11:33:12;;;;;;;21.67;13.85;;;;;;;19.12;50.55;100587.34;5068765;28;20028;-26
2022/11/08 11:35:52;;;;;;;25.33;17.33;;;;;;;19.30;51.04;100582.59;5087159;28;20112;-27